Flight Track Log - Related Links

Times and Time Zones

All times are in EDT time to prevent confusion due to time zone crossing. See the SWA2093 flight status page for this flight to view local times or setup timezone preferences in your user account.

Time Position Orientation Groundspeed Altitude Reporting Facility
EDT Latitude Longitude Course Direction KTS km/h meters Rate Location/Type
Sat 18:32:15 33.4333 -112.0500 224° Southwest 176 327 732  Level Phoenix TRACON
Sat 18:32:36 33.4244 -112.0603 224° Southwest 181 335 823 602 Climbing Albuquerque Center
Sat 18:33:37 33.4036 -112.1308 251° West 219 406 1,554 773 Climbing Albuquerque Center
Sat 18:34:39 33.3783 -112.2153 250° West 265 491 2,408 847 Climbing Albuquerque Center
Sat 18:35:40 33.3914 -112.3008 280° West 270 501 3,292 704 Climbing Albuquerque Center
Sat 18:36:41 33.4011 -112.4022 277° West 306 566 3,840 684 Climbing Albuquerque Center
Sat 18:37:43 33.4169 -112.5097 280° West 325 602 4,694 862 Climbing Albuquerque Center
Sat 18:38:44 33.4303 -112.6397 277° West 329 610 5,608 743 Climbing Albuquerque Center
Sat 18:39:46 33.4453 -112.7522 279° West 338 626 6,218 625 Climbing Albuquerque Center
Sat 18:40:47 33.4608 -112.8678 279° West 347 642 6,888 600 Climbing Albuquerque Center
Sat 18:41:48 33.4839 -112.9808 284° West 350 649 7,437 401 Climbing Albuquerque Center
Sat 18:42:50 33.5061 -113.0997 283° West 363 673 7,711 372 Climbing Albuquerque Center
Sat 18:43:51 33.5297 -113.2231 283° West 376 697 8,199 375 Climbing Albuquerque Center
Sat 18:44:52 33.5536 -113.3497 283° West 385 713 8,473 401 Climbing Albuquerque Center
Sat 18:45:54 33.5825 -113.5072 282° West 401 742 9,022 535 Climbing Albuquerque Center
Sat 18:46:55 33.6069 -113.6342 283° West 397 735 9,571 435 Climbing Albuquerque Center
Sat 18:47:56 33.6308 -113.7625 283° West 384 711 9,906 342 Climbing Albuquerque Center
Sat 18:48:58 33.6539 -113.8883 282° West 386 715 10,272 312 Climbing Albuquerque Center
Sat 18:49:59 33.6769 -114.0122 283° West 382 708 10,546 268 Climbing Albuquerque Center
Sat 18:51:01 33.7133 -114.1289 291° West 378 700 10,820 208 Climbing Albuquerque Center
Sat 18:52:02 33.7533 -114.2364 294° West 374 692 10,973 75 Climbing Albuquerque Center
Sat 18:53:03 33.7956 -114.3503 294° West 374 692 10,973  Level Albuquerque Center
Sat 18:54:05 33.8367 -114.4642 294° West 373 690 10,973  Level Albuquerque Center
Sat 18:55:16 33.8914 -114.6131 294° West 374 692 10,973  Level Los Angeles Center
Sat 18:56:18 33.9339 -114.7283 294° West 377 698 10,973  Level Los Angeles Center
Sat 18:57:20 33.9758 -114.8439 294° West 378 700 10,973 -15 Level Los Angeles Center
Sat 18:58:22 34.0250 -114.9822 293° West 377 698 10,942  Descending Los Angeles Center
Sat 18:59:23 34.0667 -115.0972 294° West 377 698 10,973 15 Climbing Los Angeles Center
Sat 19:00:25 34.1075 -115.2128 293° West 376 697 10,973  Level Los Angeles Center
Sat 19:01:27 34.1494 -115.3269 294° West 374 692 10,973  Level Los Angeles Center
Sat 19:02:29 34.1897 -115.4431 293° West 376 697 10,973  Level Los Angeles Center
Sat 19:03:30 34.2306 -115.5592 293° West 377 698 10,973 -15 Level Los Angeles Center
Sat 19:04:32 34.2717 -115.6753 293° West 377 698 10,942  Descending Los Angeles Center
Sat 19:05:34 34.3214 -115.8142 293° West 377 698 10,973 15 Climbing Los Angeles Center
Sat 19:06:36 34.3569 -115.9192 292° West 377 698 10,973  Level Los Angeles Center
Sat 19:07:38 34.3983 -116.0356 293° West 377 698 10,973  Level Los Angeles Center
Sat 19:08:39 34.4397 -116.1531 293° West 379 702 10,973  Level Los Angeles Center
Sat 19:09:41 34.4883 -116.2956 293° West 381 705 10,973  Level Los Angeles Center
Sat 19:10:43 34.5297 -116.4125 293° West 378 700 10,973  Level Los Angeles Center
Sat 19:11:45 34.5703 -116.5319 292° West 382 708 10,973  Level Los Angeles Center
Sat 19:12:46 34.6100 -116.6489 292° West 375 695 10,973  Level Los Angeles Center
Sat 19:13:48 34.6506 -116.7672 293° West 378 700 10,973  Level Los Angeles Center
Sat 19:14:50 34.6908 -116.8844 293° West 376 697 10,973  Level Los Angeles Center
Sat 19:15:51 34.7300 -117.0025 292° West 378 700 10,973  Level Los Angeles Center
Sat 19:16:53 34.7781 -117.1450 292° West 378 700 10,973  Level Los Angeles Center
Sat 19:17:55 34.8181 -117.2661 292° West 384 711 10,973  Level Los Angeles Center
Sat 19:18:57 34.8581 -117.3875 292° West 385 713 10,973  Level Los Angeles Center
Sat 19:19:59 34.8983 -117.5103 292° West 388 719 10,973  Level Los Angeles Center
Sat 19:21:00 34.9408 -117.6342 293° West 389 721 10,973  Level Los Angeles Center
Sat 19:22:02 34.9814 -117.7586 292° West 387 716 10,973  Level Los Angeles Center
Sat 19:23:04 35.0225 -117.8811 292° West 387 716 10,973  Level Los Angeles Center
Sat 19:24:06 35.0631 -118.0044 292° West 389 721 10,973  Level Los Angeles Center
Sat 19:25:07 35.1033 -118.1272 292° West 389 721 10,973 -104 Level Los Angeles Center
Sat 19:26:09 35.1508 -118.2731 292° West 385 713 10,759 -251 Descending Los Angeles Center
Sat 19:27:11 35.1889 -118.3922 291° West 379 702 10,455 -192 Descending Los Angeles Center
Sat 19:28:13 35.2278 -118.5125 292° West 381 705 10,363 -45 Descending Los Angeles Center
Sat 19:29:14 35.2667 -118.6319 292° West 379 702 10,363  Level Los Angeles Center
Sat 19:30:16 35.3053 -118.7550 291° West 387 716 10,363  Level Los Angeles Center
Sat 19:31:18 35.3439 -118.8775 291° West 390 723 10,363  Level Los Angeles Center
Sat 19:32:20 35.3831 -119.0031 291° West 394 729 10,363  Level Los Angeles Center
Sat 19:33:21 35.4225 -119.1558 288° West 392 726 10,363  Level Los Angeles Center
Sat 19:34:35 35.4500 -119.2850 285° West 394 729 10,363  Level Los Angeles Center
Sat 19:35:37 35.4842 -119.4378 285° West 390 723 10,363  Level Los Angeles Center
Sat 19:36:01 35.4931 -119.4744 287° West 392 726 10,363  Level Oakland Center
Sat 19:37:02 35.5208 -119.6031 285° West 391 724 10,363  Level Oakland Center
Sat 19:38:03 35.5489 -119.7297 285° West 388 719 10,363  Level Oakland Center
Sat 19:39:04 35.5831 -119.8856 285° West 395 732 10,363  Level Oakland Center
Sat 19:40:05 35.6108 -120.0156 285° West 396 734 10,363  Level Oakland Center
Sat 19:41:06 35.6403 -120.1431 286° West 391 724 10,363  Level Oakland Center
Sat 19:42:07 35.6678 -120.2744 284° West 397 735 10,363  Level Oakland Center
Sat 19:43:08 35.7061 -120.3997 291° West 397 735 10,363  Level Oakland Center
Sat 19:44:09 35.7539 -120.5236 295° West 400 740 10,363  Level Oakland Center
Sat 19:45:10 35.8025 -120.6464 296° West 401 742 10,363  Level Oakland Center
Sat 19:46:11 35.8511 -120.7694 296° West 401 742 10,363  Level Oakland Center
Sat 19:47:12 35.9033 -120.8931 298° West 407 753 10,363  Level Oakland Center
Sat 19:48:13 35.9828 -120.9889 316° Northwest 402 745 10,363  Level Oakland Center
Sat 19:49:14 36.0761 -121.1081 314° West 403 747 10,363  Level Oakland Center
Sat 19:50:15 36.1542 -121.2067 314° West 402 745 10,363 -15 Level Oakland Center
Sat 19:51:17 36.2311 -121.3031 315° West 395 732 10,333 -416 Descending Oakland Center
Sat 19:52:18 36.3069 -121.3997 314° West 395 732 9,510 -764 Descending Oakland Center
Sat 19:53:19 36.3819 -121.4983 313° West 393 727 8,778 -689 Descending Oakland Center
Sat 19:54:20 36.4553 -121.5906 315° West 378 700 8,108 -645 Descending Oakland Center
Sat 19:55:21 36.5247 -121.6806 314° West 361 668 7,468 -539 Descending Oakland Center
Sat 19:56:22 36.5908 -121.7628 315° West 335 621 7,010 -495 Descending Oakland Center
Sat 19:57:23 36.6517 -121.8425 314° West 319 591 6,462 -539 Descending Oakland Center
Sat 19:58:24 36.7117 -121.9183 315° West 312 578 5,913 -549 Descending Oakland Center
Sat 19:59:33 36.8000 -121.9833 329° Northwest 290 538 5,273 -496 Descending Northern Cal TRACON
Sat 20:00:33 36.8833 -122.0000 351° North 273 505 4,846 -449 Descending Northern Cal TRACON
Sat 20:01:27 36.9442 -122.0181 347° North 278 515 4,420 -477 Descending Oakland Center
Sat 20:02:28 37.0186 -122.0369 349° North 274 507 3,932 -480 Descending Oakland Center
Sat 20:03:29 37.0939 -122.0556 349° North 274 507 3,444 -450 Descending Oakland Center
Sat 20:04:30 37.1708 -122.0744 349° North 278 515 3,018 -210 Descending Oakland Center
Sat 20:05:31 37.2322 -122.1133 333° Northwest 267 494 3,018 -60 Level Oakland Center
Sat 20:06:32 37.2733 -122.1897 304° West 266 492 2,896 -135 Descending Oakland Center
Sat 20:07:33 37.3072 -122.2572 302° West 243 451 2,743 -240 Descending Oakland Center
Sat 20:08:34 37.3119 -122.3294 275° West 231 428 2,408 -165 Descending Oakland Center
Sat 20:09:35 37.3108 -122.4100 269° West 231 428 2,408  Level Oakland Center
Sat 20:10:36 37.3536 -122.4567 319° Northwest 223 414 2,408 -195 Level Oakland Center
Sat 20:11:37 37.3900 -122.3894 56° Northeast 226 418 2,012 -300 Descending Oakland Center
Sat 20:12:38 37.4022 -122.3044 80° East 237 439 1,798 -165 Descending Oakland Center
Sat 20:13:39 37.4133 -122.2208 80° East 243 451 1,676 -180 Descending Oakland Center
Sat 20:14:40 37.4242 -122.1364 81° East 245 454 1,433 -223 Descending Oakland Center
Sat 20:15:34 37.4500 -122.0833 58° Northeast 207 383 1,250 -96 Descending Northern Cal TRACON
Sat 20:16:34 37.5000 -122.1000 345° North 191 354 1,250 -76 Level Northern Cal TRACON
Sat 20:17:34 37.5333 -122.1667 302° West 180 333 1,097 -215 Descending Northern Cal TRACON
Sat 20:18:33 37.5500 -122.2000 302° West 148 274 823 -246 Descending Northern Cal TRACON
Sat 20:19:33 37.5667 -122.2500 293° West 134 248 610 -220 Descending Northern Cal TRACON
Sat 20:20:46 37.5828 -122.2919 296° West 137 254 335 -205 Descending Oakland Center
Sat 20:21:47 37.5978 -122.3294 297° West 128 237 152 -180 Descending Oakland Center

Login

Don't have an account? Register now (free) for customized features, flight alerts, and more!